createdAt,value
2022-07-28T00:02:11.089Z,1013.25
2022-07-28T00:08:31.012Z,1013.21
2022-07-28T00:14:54.026Z,1013.06
2022-07-28T00:21:13.972Z,1013.04
2022-07-28T00:27:36.986Z,1013.04
2022-07-28T00:33:56.990Z,1013.02
2022-07-28T00:40:19.982Z,1013.02
2022-07-28T00:46:40.059Z,1013.06
2022-07-28T00:53:02.969Z,1012.98
2022-07-28T00:59:22.999Z,1012.92
2022-07-28T01:05:45.989Z,1012.89
2022-07-28T01:12:06.003Z,1012.85
2022-07-28T01:18:28.996Z,1012.87
2022-07-28T01:24:49.003Z,1012.92
2022-07-28T01:31:12.006Z,1012.9
2022-07-28T01:37:32.015Z,1012.92
2022-07-28T01:43:54.989Z,1012.87
2022-07-28T01:50:14.975Z,1012.81
2022-07-28T01:56:37.985Z,1012.79
2022-07-28T02:02:58.068Z,1012.73
2022-07-28T02:09:20.976Z,1012.71
2022-07-28T02:15:41.041Z,1012.69
2022-07-28T02:22:04.009Z,1012.65
2022-07-28T02:28:23.995Z,1012.63
2022-07-28T02:34:46.996Z,1012.59
2022-07-28T02:41:07.010Z,1012.49
2022-07-28T02:47:29.984Z,1012.43
2022-07-28T02:53:50.043Z,1012.36
2022-07-28T03:00:13.005Z,1012.3
2022-07-28T03:06:32.999Z,1012.32
2022-07-28T03:12:55.991Z,1012.36
2022-07-28T03:19:15.976Z,1012.45
2022-07-28T03:43:17.467Z,1012.51
2022-07-28T03:49:36.971Z,1012.49
2022-07-28T03:55:59.986Z,1012.49
2022-07-28T04:02:20.076Z,1012.49
2022-07-28T04:08:43.003Z,1012.49
2022-07-28T04:15:03.010Z,1012.45
2022-07-28T04:21:25.974Z,1012.38
2022-07-28T04:27:45.999Z,1012.36
2022-07-28T04:34:08.982Z,1012.3
2022-07-28T04:40:29.164Z,1012.3
2022-07-28T04:46:51.980Z,1012.24
2022-07-28T04:53:12.004Z,1012.26
2022-07-28T04:59:35.031Z,1012.3
2022-07-28T05:05:55.209Z,1012.38
2022-07-28T05:12:17.997Z,1012.42
2022-07-28T05:18:38.051Z,1012.4
2022-07-28T05:25:00.984Z,1012.42
2022-07-28T05:31:21.139Z,1012.42
2022-07-28T05:37:43.982Z,1012.4
2022-07-28T05:44:04.022Z,1012.42
2022-07-28T05:50:27.032Z,1012.32
2022-07-28T05:56:50.115Z,1012.3
2022-07-28T06:03:10.071Z,1012.26
2022-07-28T06:09:29.981Z,1012.24
2022-07-28T06:15:53.016Z,1012.24
2022-07-28T06:22:13.003Z,1012.22
2022-07-28T06:28:35.987Z,1012.18
2022-07-28T06:34:56.018Z,1012.2
2022-07-28T06:41:18.993Z,1012.18
2022-07-28T06:47:38.984Z,1012.24
2022-07-28T06:54:02.004Z,1012.26
2022-07-28T07:00:22.004Z,1012.24
2022-07-28T07:06:45.010Z,1012.28
2022-07-28T07:13:05.015Z,1012.3
2022-07-28T07:19:27.989Z,1012.3
2022-07-28T07:25:48.031Z,1012.24
2022-07-28T07:32:11.172Z,1012.22
2022-07-28T07:38:31.007Z,1012.18
2022-07-28T07:44:54.044Z,1012.12
2022-07-28T07:51:15.641Z,1012.02
2022-07-28T07:57:37.006Z,1011.98
2022-07-28T08:03:56.995Z,1011.91
2022-07-28T08:10:20.297Z,1011.91
2022-07-28T08:16:40.068Z,1011.85
2022-07-28T08:23:02.984Z,1011.83
2022-07-28T08:29:23.002Z,1011.77
2022-07-28T08:35:46.033Z,1011.73
2022-07-28T08:42:05.989Z,1011.67
2022-07-28T09:05:12.970Z,1011.57
2022-07-28T09:11:35.994Z,1011.55
2022-07-28T09:17:55.999Z,1011.44
2022-07-28T09:24:18.985Z,1011.38
2022-07-28T09:30:51.836Z,1011.26
2022-07-28T09:37:02.008Z,1011.2
2022-07-28T09:43:21.983Z,1011.18
2022-07-28T09:49:45.080Z,1011.16
2022-07-28T09:56:04.989Z,1011.09
2022-07-28T10:02:28.016Z,1011.07
2022-07-28T10:08:47.986Z,1011.03
2022-07-28T10:15:10.985Z,1010.95
2022-07-28T10:21:31.009Z,1010.91
2022-07-28T10:27:53.994Z,1010.85
2022-07-28T10:34:16.265Z,1010.77
2022-07-28T10:40:36.994Z,1010.75
2022-07-28T10:46:57.016Z,1010.69
2022-07-28T10:53:21.008Z,1010.63
2022-07-28T10:59:40.978Z,1010.53
2022-07-28T11:06:03.993Z,1010.47
2022-07-28T11:12:24.110Z,1010.47
2022-07-28T11:18:46.980Z,1010.45
2022-07-28T11:25:20.087Z,1010.37
2022-07-28T11:31:29.986Z,1010.31
2022-07-28T11:37:49.979Z,1010.22
2022-07-28T11:44:13.247Z,1010.1
2022-07-28T11:50:32.998Z,1010.02
2022-07-28T11:56:56.011Z,1009.98
2022-07-28T12:03:15.979Z,1009.86
2022-07-28T12:09:42.409Z,1009.84
2022-07-28T12:15:59.021Z,1009.8
2022-07-28T12:22:21.977Z,1009.8
2022-07-28T12:28:41.991Z,1009.75
2022-07-28T12:35:04.975Z,1009.73
2022-07-28T12:41:24.972Z,1009.61
2022-07-28T12:47:47.997Z,1009.57
2022-07-28T12:54:07.982Z,1009.53
2022-07-28T13:00:30.988Z,1009.47
2022-07-28T13:06:50.974Z,1009.47
2022-07-28T13:13:13.983Z,1009.39
2022-07-28T13:19:33.987Z,1009.37
2022-07-28T13:25:56.973Z,1009.35
2022-07-28T13:32:17.085Z,1009.26
2022-07-28T13:38:39.983Z,1009.2
2022-07-28T13:44:59.975Z,1009.16
2022-07-28T13:51:22.987Z,1009.16
2022-07-28T13:57:43.118Z,1009.1
2022-07-28T14:04:05.988Z,1009.08
2022-07-28T14:10:26.559Z,1009.04
2022-07-28T14:16:49.018Z,1009.04
2022-07-28T14:23:08.983Z,1008.98
2022-07-28T14:29:31.980Z,1008.94
2022-07-28T14:59:50.991Z,1008.77
2022-07-28T15:06:13.990Z,1008.73
2022-07-28T15:12:33.982Z,1008.75
2022-07-28T15:18:56.984Z,1008.73
2022-07-28T15:25:16.990Z,1008.71
2022-07-28T15:31:40.058Z,1008.69
2022-07-28T15:37:59.982Z,1008.67
2022-07-28T15:44:26.120Z,1008.61
2022-07-28T15:50:42.982Z,1008.59
2022-07-28T15:57:05.990Z,1008.59
2022-07-28T16:03:27.101Z,1008.57
2022-07-28T16:09:50.168Z,1008.49
2022-07-28T16:16:10.084Z,1008.43
2022-07-28T16:22:33.221Z,1008.41
2022-07-28T16:28:53.247Z,1008.34
2022-07-28T16:35:16.001Z,1008.39
2022-07-28T16:41:45.192Z,1008.36
2022-07-28T16:47:58.985Z,1008.32
2022-07-28T16:54:19.447Z,1008.34
2022-07-28T17:00:41.989Z,1008.3
2022-07-28T17:07:01.978Z,1008.32
2022-07-28T17:13:24.992Z,1008.36
2022-07-28T17:19:45.173Z,1008.39
2022-07-28T17:32:27.994Z,1008.37
2022-07-28T17:38:50.973Z,1008.37
2022-07-28T17:45:10.991Z,1008.37
2022-07-28T17:51:33.982Z,1008.36
2022-07-28T17:57:53.978Z,1008.32
2022-07-28T18:04:17.305Z,1008.32
2022-07-28T18:10:36.974Z,1008.3
2022-07-28T18:16:59.985Z,1008.34
2022-07-28T18:23:19.973Z,1008.41
2022-07-28T18:29:42.984Z,1008.45
2022-07-28T18:36:02.987Z,1008.43
2022-07-28T18:42:25.983Z,1008.47
2022-07-28T18:48:48.131Z,1008.47
2022-07-28T18:55:08.970Z,1008.47
2022-07-28T19:01:29.105Z,1008.43
2022-07-28T19:07:51.975Z,1008.41
2022-07-28T19:14:12.204Z,1008.49
2022-07-28T19:20:34.990Z,1008.51
2022-07-28T19:26:54.978Z,1008.61
2022-07-28T19:33:19.191Z,1008.67
2022-07-28T19:39:40.434Z,1008.75
2022-07-28T19:46:01.005Z,1008.86
2022-07-28T19:52:22.748Z,1008.92
2022-07-28T19:58:43.986Z,1008.98
2022-07-28T20:05:03.989Z,1009.02
2022-07-28T20:11:26.985Z,1009.08
2022-07-28T20:17:47.022Z,1009.08
2022-07-28T20:24:09.981Z,1009.12
2022-07-28T20:40:33.994Z,1009.2
2022-07-28T20:46:56.981Z,1009.26
2022-07-28T20:53:17.002Z,1009.28
2022-07-28T20:59:39.974Z,1009.31
2022-07-28T21:05:59.978Z,1009.31
2022-07-28T21:12:22.994Z,1009.35
2022-07-28T21:18:42.978Z,1009.39
2022-07-28T21:25:05.988Z,1009.43
2022-07-28T21:31:25.968Z,1009.53
2022-07-28T21:37:48.974Z,1009.53
2022-07-28T21:44:08.983Z,1009.61
2022-07-28T21:50:31.975Z,1009.61
2022-07-28T21:56:51.989Z,1009.65
2022-07-28T22:19:49.983Z,1009.8
2022-07-28T22:26:09.968Z,1009.77
2022-07-28T22:32:32.984Z,1009.78
2022-07-28T22:38:52.980Z,1009.78
2022-07-28T22:45:15.996Z,1009.71
2022-07-28T22:51:35.975Z,1009.71
2022-07-28T22:58:03.405Z,1009.67
2022-07-28T23:04:19.100Z,1009.63
2022-07-28T23:10:41.995Z,1009.67
2022-07-28T23:17:01.967Z,1009.69
2022-07-28T23:23:25.016Z,1009.61
2022-07-28T23:29:44.978Z,1009.57
2022-07-28T23:36:07.991Z,1009.49
2022-07-28T23:42:27.961Z,1009.49
2022-07-28T23:48:51.123Z,1009.47
2022-07-28T23:55:10.977Z,1009.41
